Mc Gaheysville, Virginia
Current Conditions -  °F | °C
As of 11:15 AM on Friday 21 Nov 2014 (Local Time) from KSHD Reporting Station
Clear Clear  
Wind Chill: 28°   Ceiling: Unl
Heat Index: 33°   Visibility: 10mi
Dew Point:   Wind: 6mph
Humidity: 29%   Direction: 320°NW
Pressure: 30.43"   Gusts: NA
Location:  38.3726°N, 78.7456°W
Report Text: KSHD 211615Z AUTO 32005KT 10SM CLR 01/M16 A3043 RMK AO2 T00081157
Loading
Personal Weather Stations






























Interactive Weather Map New forecast layout! Learn more

10-Day Weather Forecast

Advertisements
Track Severe Weather on mobile